sensor_id;sensor_type;location;lat;lon;timestamp;P1;durP1;ratioP1;P2;durP2;ratioP2
13672;SDS011;6909;52.202;9.876;2022-09-29T00:01:36;0.57;;;0.57;;
13672;SDS011;6909;52.202;9.876;2022-09-29T00:04:03;0.13;;;0.13;;
13672;SDS011;6909;52.202;9.876;2022-09-29T00:06:30;0.10;;;0.10;;
13672;SDS011;6909;52.202;9.876;2022-09-29T00:08:58;0.33;;;0.33;;
13672;SDS011;6909;52.202;9.876;2022-09-29T00:11:25;1.70;;;0.20;;
13672;SDS011;6909;52.202;9.876;2022-09-29T00:13:53;0.43;;;0.33;;
13672;SDS011;6909;52.202;9.876;2022-09-29T00:16:19;1.10;;;0.30;;
13672;SDS011;6909;52.202;9.876;2022-09-29T00:18:47;0.10;;;0.10;;
13672;SDS011;6909;52.202;9.876;2022-09-29T00:21:14;0.20;;;0.10;;
13672;SDS011;6909;52.202;9.876;2022-09-29T00:23:44;0.50;;;0.50;;
13672;SDS011;6909;52.202;9.876;2022-09-29T00:26:13;0.43;;;0.10;;
13672;SDS011;6909;52.202;9.876;2022-09-29T00:28:44;0.43;;;0.10;;
13672;SDS011;6909;52.202;9.876;2022-09-29T00:31:12;0.30;;;0.30;;
13672;SDS011;6909;52.202;9.876;2022-09-29T00:33:39;0.10;;;0.10;;
13672;SDS011;6909;52.202;9.876;2022-09-29T00:36:07;0.50;;;0.23;;
13672;SDS011;6909;52.202;9.876;2022-09-29T00:38:36;0.10;;;0.10;;
13672;SDS011;6909;52.202;9.876;2022-09-29T00:41:03;0.43;;;0.30;;
13672;SDS011;6909;52.202;9.876;2022-09-29T00:43:48;0.20;;;0.13;;
13672;SDS011;6909;52.202;9.876;2022-09-29T00:46:17;0.40;;;0.40;;
13672;SDS011;6909;52.202;9.876;2022-09-29T00:48:49;0.20;;;0.20;;
13672;SDS011;6909;52.202;9.876;2022-09-29T00:51:17;0.40;;;0.40;;
13672;SDS011;6909;52.202;9.876;2022-09-29T00:53:48;1.70;;;0.60;;
13672;SDS011;6909;52.202;9.876;2022-09-29T00:56:19;0.47;;;0.47;;
13672;SDS011;6909;52.202;9.876;2022-09-29T00:58:48;1.20;;;0.50;;
13672;SDS011;6909;52.202;9.876;2022-09-29T01:01:19;0.87;;;0.57;;
13672;SDS011;6909;52.202;9.876;2022-09-29T01:03:45;1.00;;;0.67;;
13672;SDS011;6909;52.202;9.876;2022-09-29T01:06:15;0.57;;;0.40;;
13672;SDS011;6909;52.202;9.876;2022-09-29T01:08:46;0.93;;;0.60;;
13672;SDS011;6909;52.202;9.876;2022-09-29T01:11:19;0.77;;;0.40;;
13672;SDS011;6909;52.202;9.876;2022-09-29T01:13:48;1.03;;;0.70;;
13672;SDS011;6909;52.202;9.876;2022-09-29T01:16:17;0.30;;;0.30;;
13672;SDS011;6909;52.202;9.876;2022-09-29T01:18:44;0.60;;;0.60;;
13672;SDS011;6909;52.202;9.876;2022-09-29T01:21:13;0.30;;;0.30;;
13672;SDS011;6909;52.202;9.876;2022-09-29T01:27:06;0.83;;;0.50;;
13672;SDS011;6909;52.202;9.876;2022-09-29T01:35:38;1.40;;;1.00;;
13672;SDS011;6909;52.202;9.876;2022-09-29T01:38:13;0.90;;;0.57;;
13672;SDS011;6909;52.202;9.876;2022-09-29T01:40:53;1.27;;;1.03;;
13672;SDS011;6909;52.202;9.876;2022-09-29T01:43:26;1.50;;;1.13;;
13672;SDS011;6909;52.202;9.876;2022-09-29T01:45:58;1.53;;;1.43;;
13672;SDS011;6909;52.202;9.876;2022-09-29T01:48:30;0.37;;;0.37;;
13672;SDS011;6909;52.202;9.876;2022-09-29T01:51:02;3.73;;;1.00;;
13672;SDS011;6909;52.202;9.876;2022-09-29T01:53:34;0.70;;;0.40;;
13672;SDS011;6909;52.202;9.876;2022-09-29T01:56:06;1.53;;;1.30;;
13672;SDS011;6909;52.202;9.876;2022-09-29T01:58:40;1.20;;;0.77;;
13672;SDS011;6909;52.202;9.876;2022-09-29T02:01:11;1.40;;;0.87;;
13672;SDS011;6909;52.202;9.876;2022-09-29T02:03:39;1.10;;;1.00;;
13672;SDS011;6909;52.202;9.876;2022-09-29T02:06:11;0.70;;;0.53;;
13672;SDS011;6909;52.202;9.876;2022-09-29T02:08:44;2.77;;;1.30;;
13672;SDS011;6909;52.202;9.876;2022-09-29T02:11:14;5.80;;;2.47;;
13672;SDS011;6909;52.202;9.876;2022-09-29T02:13:42;4.00;;;1.73;;
13672;SDS011;6909;52.202;9.876;2022-09-29T02:16:14;1.93;;;1.47;;
13672;SDS011;6909;52.202;9.876;2022-09-29T02:18:44;0.90;;;0.70;;
13672;SDS011;6909;52.202;9.876;2022-09-29T02:21:20;1.23;;;0.70;;
13672;SDS011;6909;52.202;9.876;2022-09-29T02:23:47;1.87;;;1.60;;
13672;SDS011;6909;52.202;9.876;2022-09-29T02:26:14;1.67;;;1.30;;
13672;SDS011;6909;52.202;9.876;2022-09-29T02:28:43;3.90;;;1.63;;
13672;SDS011;6909;52.202;9.876;2022-09-29T02:31:11;2.60;;;1.13;;
13672;SDS011;6909;52.202;9.876;2022-09-29T02:33:38;1.57;;;0.93;;
13672;SDS011;6909;52.202;9.876;2022-09-29T02:36:07;1.33;;;1.20;;
13672;SDS011;6909;52.202;9.876;2022-09-29T02:38:46;1.67;;;1.10;;
13672;SDS011;6909;52.202;9.876;2022-09-29T02:41:19;3.03;;;2.20;;
13672;SDS011;6909;52.202;9.876;2022-09-29T02:44:03;1.73;;;1.43;;
13672;SDS011;6909;52.202;9.876;2022-09-29T02:46:54;3.93;;;1.87;;
13672;SDS011;6909;52.202;9.876;2022-09-29T02:49:33;1.43;;;1.33;;
13672;SDS011;6909;52.202;9.876;2022-09-29T02:52:18;4.53;;;2.07;;
13672;SDS011;6909;52.202;9.876;2022-09-29T02:54:56;5.63;;;2.20;;
13672;SDS011;6909;52.202;9.876;2022-09-29T02:57:32;3.33;;;2.27;;
13672;SDS011;6909;52.202;9.876;2022-09-29T03:00:11;2.97;;;1.77;;
13672;SDS011;6909;52.202;9.876;2022-09-29T03:02:39;3.60;;;2.70;;
13672;SDS011;6909;52.202;9.876;2022-09-29T03:05:08;3.60;;;2.00;;
13672;SDS011;6909;52.202;9.876;2022-09-29T03:07:37;3.03;;;2.03;;
13672;SDS011;6909;52.202;9.876;2022-09-29T03:10:06;4.37;;;1.63;;
13672;SDS011;6909;52.202;9.876;2022-09-29T03:12:35;3.50;;;3.10;;
13672;SDS011;6909;52.202;9.876;2022-09-29T03:15:02;7.00;;;2.17;;
13672;SDS011;6909;52.202;9.876;2022-09-29T03:17:30;6.63;;;3.00;;
13672;SDS011;6909;52.202;9.876;2022-09-29T03:19:57;3.27;;;2.17;;
13672;SDS011;6909;52.202;9.876;2022-09-29T03:22:24;4.00;;;1.93;;
13672;SDS011;6909;52.202;9.876;2022-09-29T03:24:51;1.83;;;1.67;;
13672;SDS011;6909;52.202;9.876;2022-09-29T03:27:19;3.23;;;1.97;;
13672;SDS011;6909;52.202;9.876;2022-09-29T03:29:46;4.20;;;2.03;;
13672;SDS011;6909;52.202;9.876;2022-09-29T03:32:14;2.03;;;1.73;;
13672;SDS011;6909;52.202;9.876;2022-09-29T03:34:41;4.30;;;2.07;;
13672;SDS011;6909;52.202;9.876;2022-09-29T03:37:08;1.97;;;1.50;;
13672;SDS011;6909;52.202;9.876;2022-09-29T03:39:35;2.20;;;1.37;;
13672;SDS011;6909;52.202;9.876;2022-09-29T03:42:01;2.57;;;2.10;;
13672;SDS011;6909;52.202;9.876;2022-09-29T03:44:29;1.73;;;1.20;;
13672;SDS011;6909;52.202;9.876;2022-09-29T03:46:56;4.87;;;2.23;;
13672;SDS011;6909;52.202;9.876;2022-09-29T03:49:23;1.73;;;1.27;;
13672;SDS011;6909;52.202;9.876;2022-09-29T03:51:49;3.83;;;2.67;;
13672;SDS011;6909;52.202;9.876;2022-09-29T03:54:16;3.07;;;1.47;;
13672;SDS011;6909;52.202;9.876;2022-09-29T03:56:43;4.03;;;1.80;;
13672;SDS011;6909;52.202;9.876;2022-09-29T03:59:10;2.17;;;1.43;;
13672;SDS011;6909;52.202;9.876;2022-09-29T04:01:40;3.23;;;1.90;;
13672;SDS011;6909;52.202;9.876;2022-09-29T04:04:07;3.30;;;1.13;;
13672;SDS011;6909;52.202;9.876;2022-09-29T04:06:35;3.33;;;1.93;;
13672;SDS011;6909;52.202;9.876;2022-09-29T04:09:02;1.47;;;1.20;;
13672;SDS011;6909;52.202;9.876;2022-09-29T04:11:28;2.87;;;1.47;;
13672;SDS011;6909;52.202;9.876;2022-09-29T04:13:55;1.73;;;1.40;;
13672;SDS011;6909;52.202;9.876;2022-09-29T04:16:22;3.43;;;2.43;;
13672;SDS011;6909;52.202;9.876;2022-09-29T04:18:50;4.10;;;1.50;;
13672;SDS011;6909;52.202;9.876;2022-09-29T04:21:17;1.90;;;1.17;;
13672;SDS011;6909;52.202;9.876;2022-09-29T04:23:43;3.23;;;2.10;;
13672;SDS011;6909;52.202;9.876;2022-09-29T04:26:10;3.43;;;1.90;;
13672;SDS011;6909;52.202;9.876;2022-09-29T04:28:37;1.73;;;1.23;;
13672;SDS011;6909;52.202;9.876;2022-09-29T04:31:04;2.30;;;1.23;;
13672;SDS011;6909;52.202;9.876;2022-09-29T04:33:32;4.87;;;1.93;;
13672;SDS011;6909;52.202;9.876;2022-09-29T04:36:00;2.90;;;2.63;;
13672;SDS011;6909;52.202;9.876;2022-09-29T04:38:27;3.03;;;2.07;;
13672;SDS011;6909;52.202;9.876;2022-09-29T04:40:54;3.80;;;1.33;;
13672;SDS011;6909;52.202;9.876;2022-09-29T04:43:20;2.17;;;1.13;;
13672;SDS011;6909;52.202;9.876;2022-09-29T04:45:47;1.70;;;1.23;;
13672;SDS011;6909;52.202;9.876;2022-09-29T04:48:14;3.83;;;2.17;;
13672;SDS011;6909;52.202;9.876;2022-09-29T04:50:41;3.23;;;1.90;;
13672;SDS011;6909;52.202;9.876;2022-09-29T04:53:09;1.67;;;1.03;;
13672;SDS011;6909;52.202;9.876;2022-09-29T04:55:36;3.03;;;1.50;;
13672;SDS011;6909;52.202;9.876;2022-09-29T04:58:03;1.77;;;1.30;;
13672;SDS011;6909;52.202;9.876;2022-09-29T05:00:30;2.63;;;1.47;;
13672;SDS011;6909;52.202;9.876;2022-09-29T05:02:58;3.27;;;2.10;;
13672;SDS011;6909;52.202;9.876;2022-09-29T05:05:25;4.13;;;1.77;;
13672;SDS011;6909;52.202;9.876;2022-09-29T05:07:52;2.30;;;1.17;;
13672;SDS011;6909;52.202;9.876;2022-09-29T05:10:20;0.87;;;0.87;;
13672;SDS011;6909;52.202;9.876;2022-09-29T05:12:47;2.77;;;1.97;;
13672;SDS011;6909;52.202;9.876;2022-09-29T05:15:14;3.83;;;2.60;;
13672;SDS011;6909;52.202;9.876;2022-09-29T05:17:42;2.33;;;1.33;;
13672;SDS011;6909;52.202;9.876;2022-09-29T05:20:09;3.23;;;1.70;;
13672;SDS011;6909;52.202;9.876;2022-09-29T05:22:36;3.77;;;2.20;;
13672;SDS011;6909;52.202;9.876;2022-09-29T05:25:02;1.97;;;1.27;;
13672;SDS011;6909;52.202;9.876;2022-09-29T05:27:31;1.63;;;1.13;;
13672;SDS011;6909;52.202;9.876;2022-09-29T05:29:58;1.53;;;1.00;;
13672;SDS011;6909;52.202;9.876;2022-09-29T05:32:24;3.60;;;1.50;;
13672;SDS011;6909;52.202;9.876;2022-09-29T05:34:52;4.13;;;2.10;;
13672;SDS011;6909;52.202;9.876;2022-09-29T05:37:19;2.13;;;1.67;;
13672;SDS011;6909;52.202;9.876;2022-09-29T05:39:45;3.10;;;1.67;;
13672;SDS011;6909;52.202;9.876;2022-09-29T05:42:12;2.80;;;2.47;;
13672;SDS011;6909;52.202;9.876;2022-09-29T05:44:40;3.40;;;2.50;;
13672;SDS011;6909;52.202;9.876;2022-09-29T05:47:07;2.73;;;1.87;;
13672;SDS011;6909;52.202;9.876;2022-09-29T05:49:33;2.73;;;1.80;;
13672;SDS011;6909;52.202;9.876;2022-09-29T05:52:00;2.03;;;1.63;;
13672;SDS011;6909;52.202;9.876;2022-09-29T05:54:27;1.63;;;1.37;;
13672;SDS011;6909;52.202;9.876;2022-09-29T05:56:54;2.73;;;2.23;;
13672;SDS011;6909;52.202;9.876;2022-09-29T05:59:21;2.03;;;1.73;;
13672;SDS011;6909;52.202;9.876;2022-09-29T06:01:49;3.70;;;2.87;;
13672;SDS011;6909;52.202;9.876;2022-09-29T06:04:16;3.30;;;2.30;;
13672;SDS011;6909;52.202;9.876;2022-09-29T06:06:42;3.67;;;2.30;;
13672;SDS011;6909;52.202;9.876;2022-09-29T06:09:09;3.80;;;2.50;;
13672;SDS011;6909;52.202;9.876;2022-09-29T06:11:36;4.40;;;1.77;;
13672;SDS011;6909;52.202;9.876;2022-09-29T06:14:02;3.00;;;1.60;;
13672;SDS011;6909;52.202;9.876;2022-09-29T06:16:30;2.87;;;2.00;;
13672;SDS011;6909;52.202;9.876;2022-09-29T06:18:59;3.20;;;2.00;;
13672;SDS011;6909;52.202;9.876;2022-09-29T06:21:27;3.43;;;1.87;;
13672;SDS011;6909;52.202;9.876;2022-09-29T06:23:55;2.70;;;2.27;;
13672;SDS011;6909;52.202;9.876;2022-09-29T06:26:23;3.13;;;2.33;;
13672;SDS011;6909;52.202;9.876;2022-09-29T06:28:50;2.20;;;1.80;;
13672;SDS011;6909;52.202;9.876;2022-09-29T06:31:18;2.37;;;1.80;;
13672;SDS011;6909;52.202;9.876;2022-09-29T06:33:46;3.07;;;2.03;;
13672;SDS011;6909;52.202;9.876;2022-09-29T06:36:15;3.27;;;2.10;;
13672;SDS011;6909;52.202;9.876;2022-09-29T06:39:01;2.72;;;1.95;;
13672;SDS011;6909;52.202;9.876;2022-09-29T06:41:29;2.80;;;2.22;;
13672;SDS011;6909;52.202;9.876;2022-09-29T06:43:55;2.40;;;2.15;;
13672;SDS011;6909;52.202;9.876;2022-09-29T06:46:22;3.22;;;2.13;;
13672;SDS011;6909;52.202;9.876;2022-09-29T06:48:50;3.03;;;2.10;;
13672;SDS011;6909;52.202;9.876;2022-09-29T06:51:19;2.50;;;2.15;;
13672;SDS011;6909;52.202;9.876;2022-09-29T06:53:47;4.75;;;2.75;;
13672;SDS011;6909;52.202;9.876;2022-09-29T06:56:14;2.35;;;1.95;;
13672;SDS011;6909;52.202;9.876;2022-09-29T06:58:41;4.20;;;2.75;;
13672;SDS011;6909;52.202;9.876;2022-09-29T07:01:08;3.55;;;2.47;;
13672;SDS011;6909;52.202;9.876;2022-09-29T07:03:35;3.10;;;2.40;;
13672;SDS011;6909;52.202;9.876;2022-09-29T07:06:02;3.72;;;2.47;;
13672;SDS011;6909;52.202;9.876;2022-09-29T07:08:31;4.35;;;2.85;;
13672;SDS011;6909;52.202;9.876;2022-09-29T07:11:00;4.25;;;2.95;;
13672;SDS011;6909;52.202;9.876;2022-09-29T07:13:27;4.45;;;2.78;;
13672;SDS011;6909;52.202;9.876;2022-09-29T07:15:54;3.15;;;2.58;;
13672;SDS011;6909;52.202;9.876;2022-09-29T07:18:21;4.90;;;2.97;;
13672;SDS011;6909;52.202;9.876;2022-09-29T07:20:48;4.28;;;2.53;;
13672;SDS011;6909;52.202;9.876;2022-09-29T07:23:14;3.05;;;2.58;;
13672;SDS011;6909;52.202;9.876;2022-09-29T07:25:44;3.17;;;2.70;;
13672;SDS011;6909;52.202;9.876;2022-09-29T07:28:11;3.88;;;2.55;;
13672;SDS011;6909;52.202;9.876;2022-09-29T07:30:37;4.03;;;2.95;;
13672;SDS011;6909;52.202;9.876;2022-09-29T07:33:04;5.07;;;3.20;;
13672;SDS011;6909;52.202;9.876;2022-09-29T07:35:31;2.83;;;2.47;;
13672;SDS011;6909;52.202;9.876;2022-09-29T07:37:57;3.08;;;2.75;;
13672;SDS011;6909;52.202;9.876;2022-09-29T07:40:24;4.25;;;2.63;;
13672;SDS011;6909;52.202;9.876;2022-09-29T07:42:53;2.83;;;2.17;;
13672;SDS011;6909;52.202;9.876;2022-09-29T07:45:20;3.13;;;2.47;;
13672;SDS011;6909;52.202;9.876;2022-09-29T07:47:46;7.13;;;2.33;;
13672;SDS011;6909;52.202;9.876;2022-09-29T07:50:13;3.08;;;2.30;;
13672;SDS011;6909;52.202;9.876;2022-09-29T07:52:40;3.25;;;2.17;;
13672;SDS011;6909;52.202;9.876;2022-09-29T07:55:07;3.90;;;2.83;;
13672;SDS011;6909;52.202;9.876;2022-09-29T07:57:34;3.30;;;2.50;;
13672;SDS011;6909;52.202;9.876;2022-09-29T08:00:03;2.97;;;2.20;;
13672;SDS011;6909;52.202;9.876;2022-09-29T08:02:30;3.70;;;2.07;;
13672;SDS011;6909;52.202;9.876;2022-09-29T08:04:57;2.67;;;2.07;;
13672;SDS011;6909;52.202;9.876;2022-09-29T08:07:23;3.17;;;1.80;;
13672;SDS011;6909;52.202;9.876;2022-09-29T08:09:50;3.33;;;1.97;;
13672;SDS011;6909;52.202;9.876;2022-09-29T08:12:17;2.30;;;2.00;;
13672;SDS011;6909;52.202;9.876;2022-09-29T08:14:43;2.03;;;1.70;;
13672;SDS011;6909;52.202;9.876;2022-09-29T08:17:11;2.13;;;1.73;;
13672;SDS011;6909;52.202;9.876;2022-09-29T08:19:38;3.13;;;2.43;;
13672;SDS011;6909;52.202;9.876;2022-09-29T08:22:05;2.90;;;1.70;;
13672;SDS011;6909;52.202;9.876;2022-09-29T08:24:32;2.70;;;1.63;;
13672;SDS011;6909;52.202;9.876;2022-09-29T08:27:00;2.27;;;1.73;;
13672;SDS011;6909;52.202;9.876;2022-09-29T08:29:29;2.37;;;1.63;;
13672;SDS011;6909;52.202;9.876;2022-09-29T08:31:56;2.30;;;1.70;;
13672;SDS011;6909;52.202;9.876;2022-09-29T08:34:24;2.23;;;1.60;;
13672;SDS011;6909;52.202;9.876;2022-09-29T08:36:53;2.80;;;1.80;;
13672;SDS011;6909;52.202;9.876;2022-09-29T08:39:20;2.50;;;2.03;;
13672;SDS011;6909;52.202;9.876;2022-09-29T08:41:55;1.80;;;1.60;;
13672;SDS011;6909;52.202;9.876;2022-09-29T08:44:28;2.63;;;1.67;;
13672;SDS011;6909;52.202;9.876;2022-09-29T08:47:02;2.33;;;1.60;;
13672;SDS011;6909;52.202;9.876;2022-09-29T08:49:34;2.17;;;1.57;;
13672;SDS011;6909;52.202;9.876;2022-09-29T08:52:05;2.83;;;1.90;;
13672;SDS011;6909;52.202;9.876;2022-09-29T08:54:39;2.83;;;2.13;;
13672;SDS011;6909;52.202;9.876;2022-09-29T08:57:09;2.03;;;1.70;;
13672;SDS011;6909;52.202;9.876;2022-09-29T08:59:42;3.03;;;2.03;;
13672;SDS011;6909;52.202;9.876;2022-09-29T09:02:16;2.37;;;2.17;;
13672;SDS011;6909;52.202;9.876;2022-09-29T09:05:07;2.40;;;2.07;;
13672;SDS011;6909;52.202;9.876;2022-09-29T09:07:41;1.80;;;1.30;;
13672;SDS011;6909;52.202;9.876;2022-09-29T09:10:20;2.80;;;1.83;;
13672;SDS011;6909;52.202;9.876;2022-09-29T09:13:09;2.43;;;1.83;;
13672;SDS011;6909;52.202;9.876;2022-09-29T09:16:01;3.33;;;1.83;;
13672;SDS011;6909;52.202;9.876;2022-09-29T09:18:40;3.23;;;2.23;;
13672;SDS011;6909;52.202;9.876;2022-09-29T09:21:29;2.60;;;1.70;;
13672;SDS011;6909;52.202;9.876;2022-09-29T09:24:04;3.03;;;2.23;;
13672;SDS011;6909;52.202;9.876;2022-09-29T09:26:41;1.73;;;1.63;;
13672;SDS011;6909;52.202;9.876;2022-09-29T09:29:12;3.03;;;2.30;;
13672;SDS011;6909;52.202;9.876;2022-09-29T09:31:44;4.27;;;2.30;;
13672;SDS011;6909;52.202;9.876;2022-09-29T09:34:17;3.23;;;2.47;;
13672;SDS011;6909;52.202;9.876;2022-09-29T09:36:49;3.87;;;2.40;;
13672;SDS011;6909;52.202;9.876;2022-09-29T09:39:24;2.77;;;2.20;;
13672;SDS011;6909;52.202;9.876;2022-09-29T09:41:55;1.70;;;1.60;;
13672;SDS011;6909;52.202;9.876;2022-09-29T09:44:25;2.63;;;1.97;;
13672;SDS011;6909;52.202;9.876;2022-09-29T09:46:58;3.20;;;1.90;;
13672;SDS011;6909;52.202;9.876;2022-09-29T09:49:30;4.13;;;2.27;;
13672;SDS011;6909;52.202;9.876;2022-09-29T09:52:03;3.37;;;2.30;;
13672;SDS011;6909;52.202;9.876;2022-09-29T09:54:37;3.70;;;2.23;;
13672;SDS011;6909;52.202;9.876;2022-09-29T09:57:09;2.03;;;1.57;;
13672;SDS011;6909;52.202;9.876;2022-09-29T10:00:05;2.60;;;2.13;;
13672;SDS011;6909;52.202;9.876;2022-09-29T10:02:37;2.30;;;2.10;;
13672;SDS011;6909;52.202;9.876;2022-09-29T10:05:10;1.60;;;1.30;;
13672;SDS011;6909;52.202;9.876;2022-09-29T10:07:40;2.90;;;1.50;;
13672;SDS011;6909;52.202;9.876;2022-09-29T10:10:12;1.37;;;1.20;;
13672;SDS011;6909;52.202;9.876;2022-09-29T10:12:42;2.13;;;1.73;;
13672;SDS011;6909;52.202;9.876;2022-09-29T10:15:13;1.50;;;1.40;;
13672;SDS011;6909;52.202;9.876;2022-09-29T10:17:45;3.23;;;1.73;;
13672;SDS011;6909;52.202;9.876;2022-09-29T10:20:27;1.63;;;1.20;;
13672;SDS011;6909;52.202;9.876;2022-09-29T10:23:08;1.40;;;1.23;;
13672;SDS011;6909;52.202;9.876;2022-09-29T10:25:56;1.20;;;0.83;;
13672;SDS011;6909;52.202;9.876;2022-09-29T10:28:27;1.43;;;1.33;;
13672;SDS011;6909;52.202;9.876;2022-09-29T10:31:02;2.80;;;1.40;;
13672;SDS011;6909;52.202;9.876;2022-09-29T10:33:44;1.90;;;1.13;;
13672;SDS011;6909;52.202;9.876;2022-09-29T10:36:15;2.47;;;1.63;;
13672;SDS011;6909;52.202;9.876;2022-09-29T10:38:46;1.47;;;1.37;;
13672;SDS011;6909;52.202;9.876;2022-09-29T10:41:14;1.93;;;1.10;;
13672;SDS011;6909;52.202;9.876;2022-09-29T10:43:42;2.43;;;1.50;;
13672;SDS011;6909;52.202;9.876;2022-09-29T10:49:07;1.43;;;1.20;;
13672;SDS011;6909;52.202;9.876;2022-09-29T10:51:35;1.57;;;1.00;;
13672;SDS011;6909;52.202;9.876;2022-09-29T10:54:06;1.20;;;1.10;;
13672;SDS011;6909;52.202;9.876;2022-09-29T10:56:34;1.00;;;0.83;;
13672;SDS011;6909;52.202;9.876;2022-09-29T10:59:01;1.30;;;1.03;;
13672;SDS011;6909;52.202;9.876;2022-09-29T11:01:29;1.37;;;0.87;;
13672;SDS011;6909;52.202;9.876;2022-09-29T11:03:58;1.77;;;1.13;;
13672;SDS011;6909;52.202;9.876;2022-09-29T11:06:28;1.30;;;1.20;;
13672;SDS011;6909;52.202;9.876;2022-09-29T11:08:57;1.37;;;0.93;;
13672;SDS011;6909;52.202;9.876;2022-09-29T11:11:28;1.27;;;0.63;;
13672;SDS011;6909;52.202;9.876;2022-09-29T11:13:56;1.83;;;0.70;;
13672;SDS011;6909;52.202;9.876;2022-09-29T11:16:25;1.13;;;0.90;;
13672;SDS011;6909;52.202;9.876;2022-09-29T11:18:54;1.10;;;1.00;;
13672;SDS011;6909;52.202;9.876;2022-09-29T11:21:44;2.73;;;1.57;;
13672;SDS011;6909;52.202;9.876;2022-09-29T11:27:55;1.70;;;0.93;;
13672;SDS011;6909;52.202;9.876;2022-09-29T11:30:38;1.20;;;1.10;;
13672;SDS011;6909;52.202;9.876;2022-09-29T11:33:15;1.63;;;0.90;;
13672;SDS011;6909;52.202;9.876;2022-09-29T11:35:53;1.23;;;0.90;;
13672;SDS011;6909;52.202;9.876;2022-09-29T11:41:40;1.30;;;1.20;;
13672;SDS011;6909;52.202;9.876;2022-09-29T11:44:24;0.73;;;0.70;;
13672;SDS011;6909;52.202;9.876;2022-09-29T11:47:04;3.97;;;1.00;;
13672;SDS011;6909;52.202;9.876;2022-09-29T11:49:54;0.90;;;0.70;;
13672;SDS011;6909;52.202;9.876;2022-09-29T11:52:33;1.93;;;1.63;;
13672;SDS011;6909;52.202;9.876;2022-09-29T11:58:01;1.23;;;0.90;;
13672;SDS011;6909;52.202;9.876;2022-09-29T12:00:49;0.43;;;0.43;;
13672;SDS011;6909;52.202;9.876;2022-09-29T12:03:29;1.07;;;0.80;;
13672;SDS011;6909;52.202;9.876;2022-09-29T12:06:18;0.63;;;0.60;;
13672;SDS011;6909;52.202;9.876;2022-09-29T12:09:13;0.60;;;0.60;;
13672;SDS011;6909;52.202;9.876;2022-09-29T12:12:01;1.37;;;0.53;;
13672;SDS011;6909;52.202;9.876;2022-09-29T12:14:37;0.50;;;0.50;;
13672;SDS011;6909;52.202;9.876;2022-09-29T12:17:20;0.57;;;0.57;;
13672;SDS011;6909;52.202;9.876;2022-09-29T12:19:49;0.73;;;0.73;;
13672;SDS011;6909;52.202;9.876;2022-09-29T12:22:19;0.87;;;0.60;;
13672;SDS011;6909;52.202;9.876;2022-09-29T12:24:46;1.70;;;1.03;;
13672;SDS011;6909;52.202;9.876;2022-09-29T12:27:20;0.47;;;0.47;;
13672;SDS011;6909;52.202;9.876;2022-09-29T12:29:52;0.40;;;0.40;;
13672;SDS011;6909;52.202;9.876;2022-09-29T12:32:26;1.00;;;0.90;;
13672;SDS011;6909;52.202;9.876;2022-09-29T12:34:57;0.53;;;0.53;;
13672;SDS011;6909;52.202;9.876;2022-09-29T12:37:28;0.87;;;0.47;;
13672;SDS011;6909;52.202;9.876;2022-09-29T12:40:00;0.20;;;0.20;;
13672;SDS011;6909;52.202;9.876;2022-09-29T12:42:33;0.50;;;0.30;;
13672;SDS011;6909;52.202;9.876;2022-09-29T12:45:07;0.43;;;0.37;;
13672;SDS011;6909;52.202;9.876;2022-09-29T12:47:46;0.30;;;0.30;;
13672;SDS011;6909;52.202;9.876;2022-09-29T12:50:17;0.37;;;0.37;;
13672;SDS011;6909;52.202;9.876;2022-09-29T12:52:50;0.40;;;0.40;;
13672;SDS011;6909;52.202;9.876;2022-09-29T12:55:22;0.60;;;0.60;;
13672;SDS011;6909;52.202;9.876;2022-09-29T12:57:54;0.50;;;0.50;;
13672;SDS011;6909;52.202;9.876;2022-09-29T13:00:25;0.70;;;0.50;;
13672;SDS011;6909;52.202;9.876;2022-09-29T13:09:01;0.50;;;0.40;;
13672;SDS011;6909;52.202;9.876;2022-09-29T13:15:04;0.30;;;0.30;;
13672;SDS011;6909;52.202;9.876;2022-09-29T13:17:55;0.40;;;0.40;;
13672;SDS011;6909;52.202;9.876;2022-09-29T13:20:41;0.57;;;0.40;;
13672;SDS011;6909;52.202;9.876;2022-09-29T13:23:32;0.57;;;0.40;;
13672;SDS011;6909;52.202;9.876;2022-09-29T13:29:18;0.50;;;0.50;;
13672;SDS011;6909;52.202;9.876;2022-09-29T13:31:48;0.50;;;0.50;;
13672;SDS011;6909;52.202;9.876;2022-09-29T13:34:23;0.67;;;0.40;;
13672;SDS011;6909;52.202;9.876;2022-09-29T13:37:04;0.80;;;0.40;;
13672;SDS011;6909;52.202;9.876;2022-09-29T13:39:36;1.70;;;0.70;;
13672;SDS011;6909;52.202;9.876;2022-09-29T13:42:24;0.30;;;0.27;;
13672;SDS011;6909;52.202;9.876;2022-09-29T13:47:59;0.80;;;0.80;;
13672;SDS011;6909;52.202;9.876;2022-09-29T13:50:40;0.67;;;0.67;;
13672;SDS011;6909;52.202;9.876;2022-09-29T13:53:32;0.70;;;0.50;;
13672;SDS011;6909;52.202;9.876;2022-09-29T13:56:10;0.70;;;0.50;;
13672;SDS011;6909;52.202;9.876;2022-09-29T13:58:54;0.50;;;0.50;;
13672;SDS011;6909;52.202;9.876;2022-09-29T14:01:28;0.43;;;0.40;;
13672;SDS011;6909;52.202;9.876;2022-09-29T14:03:57;0.40;;;0.40;;
13672;SDS011;6909;52.202;9.876;2022-09-29T14:07:02;0.27;;;0.27;;
13672;SDS011;6909;52.202;9.876;2022-09-29T14:09:32;0.40;;;0.40;;
13672;SDS011;6909;52.202;9.876;2022-09-29T14:12:03;0.37;;;0.37;;
13672;SDS011;6909;52.202;9.876;2022-09-29T14:14:33;0.60;;;0.60;;
13672;SDS011;6909;52.202;9.876;2022-09-29T14:17:04;0.70;;;0.60;;
13672;SDS011;6909;52.202;9.876;2022-09-29T14:19:38;0.50;;;0.50;;
13672;SDS011;6909;52.202;9.876;2022-09-29T14:25:29;0.30;;;0.30;;
13672;SDS011;6909;52.202;9.876;2022-09-29T14:28:00;0.30;;;0.27;;
13672;SDS011;6909;52.202;9.876;2022-09-29T14:30:39;0.20;;;0.20;;
13672;SDS011;6909;52.202;9.876;2022-09-29T14:33:08;0.40;;;0.27;;
13672;SDS011;6909;52.202;9.876;2022-09-29T14:35:38;1.13;;;0.40;;
13672;SDS011;6909;52.202;9.876;2022-09-29T14:38:08;0.30;;;0.30;;
13672;SDS011;6909;52.202;9.876;2022-09-29T14:40:53;0.43;;;0.43;;
13672;SDS011;6909;52.202;9.876;2022-09-29T14:43:20;0.40;;;0.40;;
13672;SDS011;6909;52.202;9.876;2022-09-29T14:46:07;0.50;;;0.50;;
13672;SDS011;6909;52.202;9.876;2022-09-29T14:52:49;0.70;;;0.70;;
13672;SDS011;6909;52.202;9.876;2022-09-29T14:55:27;0.30;;;0.30;;
13672;SDS011;6909;52.202;9.876;2022-09-29T14:58:07;0.77;;;0.50;;
13672;SDS011;6909;52.202;9.876;2022-09-29T15:00:49;0.40;;;0.40;;
13672;SDS011;6909;52.202;9.876;2022-09-29T15:03:26;0.57;;;0.57;;
13672;SDS011;6909;52.202;9.876;2022-09-29T15:06:05;0.70;;;0.60;;
13672;SDS011;6909;52.202;9.876;2022-09-29T15:08:36;0.40;;;0.40;;
13672;SDS011;6909;52.202;9.876;2022-09-29T15:11:19;1.70;;;0.50;;
13672;SDS011;6909;52.202;9.876;2022-09-29T15:13:54;1.90;;;0.27;;
13672;SDS011;6909;52.202;9.876;2022-09-29T15:16:23;0.60;;;0.40;;
13672;SDS011;6909;52.202;9.876;2022-09-29T15:19:17;0.53;;;0.40;;
13672;SDS011;6909;52.202;9.876;2022-09-29T15:21:58;0.50;;;0.50;;
13672;SDS011;6909;52.202;9.876;2022-09-29T15:24:47;0.50;;;0.50;;
13672;SDS011;6909;52.202;9.876;2022-09-29T15:27:25;0.40;;;0.40;;
13672;SDS011;6909;52.202;9.876;2022-09-29T15:29:54;0.67;;;0.67;;
13672;SDS011;6909;52.202;9.876;2022-09-29T15:32:23;0.40;;;0.40;;
13672;SDS011;6909;52.202;9.876;2022-09-29T15:34:52;1.30;;;0.80;;
13672;SDS011;6909;52.202;9.876;2022-09-29T15:37:24;1.10;;;0.73;;
13672;SDS011;6909;52.202;9.876;2022-09-29T15:39:51;0.60;;;0.60;;
13672;SDS011;6909;52.202;9.876;2022-09-29T15:42:19;0.70;;;0.20;;
13672;SDS011;6909;52.202;9.876;2022-09-29T15:44:50;0.57;;;0.57;;
13672;SDS011;6909;52.202;9.876;2022-09-29T15:47:25;0.70;;;0.70;;
13672;SDS011;6909;52.202;9.876;2022-09-29T15:49:54;0.50;;;0.50;;
13672;SDS011;6909;52.202;9.876;2022-09-29T15:52:20;0.57;;;0.47;;
13672;SDS011;6909;52.202;9.876;2022-09-29T15:54:57;0.60;;;0.60;;
13672;SDS011;6909;52.202;9.876;2022-09-29T15:57:28;0.50;;;0.40;;
13672;SDS011;6909;52.202;9.876;2022-09-29T16:03:22;0.80;;;0.57;;
13672;SDS011;6909;52.202;9.876;2022-09-29T16:05:57;0.87;;;0.87;;
13672;SDS011;6909;52.202;9.876;2022-09-29T16:08:27;0.90;;;0.47;;
13672;SDS011;6909;52.202;9.876;2022-09-29T16:10:59;0.77;;;0.53;;
13672;SDS011;6909;52.202;9.876;2022-09-29T16:13:29;0.40;;;0.40;;
13672;SDS011;6909;52.202;9.876;2022-09-29T16:15:58;0.50;;;0.50;;